sensor_id;sensor_type;location;lat;lon;timestamp;temperature;humidity
18934;DHT22;9599;53.706;10.384;2023-07-09T00:01:54;18.30;99.90
18934;DHT22;9599;53.706;10.384;2023-07-09T00:04:22;18.40;99.90
18934;DHT22;9599;53.706;10.384;2023-07-09T00:06:50;18.30;99.90
18934;DHT22;9599;53.706;10.384;2023-07-09T00:09:20;18.20;99.90
18934;DHT22;9599;53.706;10.384;2023-07-09T00:11:49;18.20;99.90
18934;DHT22;9599;53.706;10.384;2023-07-09T00:14:18;18.30;99.90
18934;DHT22;9599;53.706;10.384;2023-07-09T00:16:46;18.20;99.90
18934;DHT22;9599;53.706;10.384;2023-07-09T00:19:19;18.20;99.90
18934;DHT22;9599;53.706;10.384;2023-07-09T00:21:48;18.20;99.90
18934;DHT22;9599;53.706;10.384;2023-07-09T00:24:20;18.10;99.90
18934;DHT22;9599;53.706;10.384;2023-07-09T00:26:48;18.10;99.90
18934;DHT22;9599;53.706;10.384;2023-07-09T00:29:17;18.00;99.90
18934;DHT22;9599;53.706;10.384;2023-07-09T00:31:45;18.00;99.90
18934;DHT22;9599;53.706;10.384;2023-07-09T00:34:14;18.00;99.90
18934;DHT22;9599;53.706;10.384;2023-07-09T00:36:46;17.90;99.90
18934;DHT22;9599;53.706;10.384;2023-07-09T00:39:15;17.90;99.90
18934;DHT22;9599;53.706;10.384;2023-07-09T00:41:45;17.90;99.90
18934;DHT22;9599;53.706;10.384;2023-07-09T00:44:25;17.90;99.90
18934;DHT22;9599;53.706;10.384;2023-07-09T00:47:28;17.90;99.90
18934;DHT22;9599;53.706;10.384;2023-07-09T00:50:08;17.90;99.90
18934;DHT22;9599;53.706;10.384;2023-07-09T00:52:42;17.90;99.90
18934;DHT22;9599;53.706;10.384;2023-07-09T00:55:16;17.90;99.90
18934;DHT22;9599;53.706;10.384;2023-07-09T00:57:48;17.90;99.90
18934;DHT22;9599;53.706;10.384;2023-07-09T01:00:27;17.80;99.90
18934;DHT22;9599;53.706;10.384;2023-07-09T01:02:56;17.90;99.90
18934;DHT22;9599;53.706;10.384;2023-07-09T01:05:26;17.90;99.90
18934;DHT22;9599;53.706;10.384;2023-07-09T01:07:55;17.80;99.90
18934;DHT22;9599;53.706;10.384;2023-07-09T01:10:25;17.90;99.90
18934;DHT22;9599;53.706;10.384;2023-07-09T01:12:53;17.90;99.90
18934;DHT22;9599;53.706;10.384;2023-07-09T01:15:21;17.90;99.90
18934;DHT22;9599;53.706;10.384;2023-07-09T01:17:49;17.90;99.90
18934;DHT22;9599;53.706;10.384;2023-07-09T01:20:21;18.00;99.90
18934;DHT22;9599;53.706;10.384;2023-07-09T01:22:51;18.10;99.90
18934;DHT22;9599;53.706;10.384;2023-07-09T01:25:21;18.10;99.90
18934;DHT22;9599;53.706;10.384;2023-07-09T01:27:50;18.20;99.90
18934;DHT22;9599;53.706;10.384;2023-07-09T01:30:20;18.20;99.90
18934;DHT22;9599;53.706;10.384;2023-07-09T01:32:49;18.20;99.90
18934;DHT22;9599;53.706;10.384;2023-07-09T01:35:20;18.30;99.90
18934;DHT22;9599;53.706;10.384;2023-07-09T01:37:49;18.30;99.90
18934;DHT22;9599;53.706;10.384;2023-07-09T01:40:20;18.30;99.90
18934;DHT22;9599;53.706;10.384;2023-07-09T01:43:01;18.30;99.90
18934;DHT22;9599;53.706;10.384;2023-07-09T01:45:33;18.30;99.90
18934;DHT22;9599;53.706;10.384;2023-07-09T01:48:02;18.40;99.90
18934;DHT22;9599;53.706;10.384;2023-07-09T01:50:30;18.30;99.90
18934;DHT22;9599;53.706;10.384;2023-07-09T01:52:59;18.30;99.90
18934;DHT22;9599;53.706;10.384;2023-07-09T01:55:28;18.20;99.90
18934;DHT22;9599;53.706;10.384;2023-07-09T01:57:58;18.20;99.90
18934;DHT22;9599;53.706;10.384;2023-07-09T02:00:26;18.30;99.90
18934;DHT22;9599;53.706;10.384;2023-07-09T02:02:54;18.20;99.90
18934;DHT22;9599;53.706;10.384;2023-07-09T02:05:25;18.20;99.90
18934;DHT22;9599;53.706;10.384;2023-07-09T02:07:54;18.10;99.90
18934;DHT22;9599;53.706;10.384;2023-07-09T02:10:22;18.10;99.90
18934;DHT22;9599;53.706;10.384;2023-07-09T02:12:51;18.10;99.90
18934;DHT22;9599;53.706;10.384;2023-07-09T02:15:20;18.10;99.90
18934;DHT22;9599;53.706;10.384;2023-07-09T02:17:49;18.20;99.90
18934;DHT22;9599;53.706;10.384;2023-07-09T02:20:19;18.10;99.90
18934;DHT22;9599;53.706;10.384;2023-07-09T02:22:50;18.20;99.90
18934;DHT22;9599;53.706;10.384;2023-07-09T02:25:19;18.10;99.90
18934;DHT22;9599;53.706;10.384;2023-07-09T02:27:47;18.20;99.90
18934;DHT22;9599;53.706;10.384;2023-07-09T02:30:18;18.20;99.90
18934;DHT22;9599;53.706;10.384;2023-07-09T02:32:46;18.20;99.90
18934;DHT22;9599;53.706;10.384;2023-07-09T02:35:16;18.20;99.90
18934;DHT22;9599;53.706;10.384;2023-07-09T02:37:44;18.20;99.90
18934;DHT22;9599;53.706;10.384;2023-07-09T02:40:13;18.20;99.90
18934;DHT22;9599;53.706;10.384;2023-07-09T02:42:41;18.20;99.90
18934;DHT22;9599;53.706;10.384;2023-07-09T02:45:10;18.20;99.90
18934;DHT22;9599;53.706;10.384;2023-07-09T02:47:39;18.20;99.90
18934;DHT22;9599;53.706;10.384;2023-07-09T02:50:08;18.10;99.90
18934;DHT22;9599;53.706;10.384;2023-07-09T02:52:36;18.10;99.90
18934;DHT22;9599;53.706;10.384;2023-07-09T02:55:05;18.10;99.90
18934;DHT22;9599;53.706;10.384;2023-07-09T02:57:33;18.10;99.90
18934;DHT22;9599;53.706;10.384;2023-07-09T03:00:01;18.10;99.90
18934;DHT22;9599;53.706;10.384;2023-07-09T03:02:34;18.00;99.90
18934;DHT22;9599;53.706;10.384;2023-07-09T03:05:04;17.90;99.90
18934;DHT22;9599;53.706;10.384;2023-07-09T03:07:34;17.90;99.90
18934;DHT22;9599;53.706;10.384;2023-07-09T03:10:02;17.90;99.90
18934;DHT22;9599;53.706;10.384;2023-07-09T03:12:30;17.70;99.90
18934;DHT22;9599;53.706;10.384;2023-07-09T03:14:58;17.50;99.90
18934;DHT22;9599;53.706;10.384;2023-07-09T03:17:26;17.40;99.90
18934;DHT22;9599;53.706;10.384;2023-07-09T03:19:54;17.30;99.90
18934;DHT22;9599;53.706;10.384;2023-07-09T03:22:24;17.30;99.90
18934;DHT22;9599;53.706;10.384;2023-07-09T03:24:51;17.30;99.90
18934;DHT22;9599;53.706;10.384;2023-07-09T03:27:20;17.30;99.90
18934;DHT22;9599;53.706;10.384;2023-07-09T03:29:48;17.30;99.90
18934;DHT22;9599;53.706;10.384;2023-07-09T03:32:16;17.20;99.90
18934;DHT22;9599;53.706;10.384;2023-07-09T03:34:44;17.10;99.90
18934;DHT22;9599;53.706;10.384;2023-07-09T03:37:13;17.10;99.90
18934;DHT22;9599;53.706;10.384;2023-07-09T03:39:45;17.10;99.90
18934;DHT22;9599;53.706;10.384;2023-07-09T03:42:14;17.00;99.90
18934;DHT22;9599;53.706;10.384;2023-07-09T03:44:42;17.00;99.90
18934;DHT22;9599;53.706;10.384;2023-07-09T03:47:10;17.00;99.90
18934;DHT22;9599;53.706;10.384;2023-07-09T03:49:38;17.00;99.90
18934;DHT22;9599;53.706;10.384;2023-07-09T03:52:08;17.00;99.90
18934;DHT22;9599;53.706;10.384;2023-07-09T03:54:36;17.10;99.90
18934;DHT22;9599;53.706;10.384;2023-07-09T03:57:05;17.10;99.90
18934;DHT22;9599;53.706;10.384;2023-07-09T03:59:34;17.10;99.90
18934;DHT22;9599;53.706;10.384;2023-07-09T04:02:04;17.10;99.90
18934;DHT22;9599;53.706;10.384;2023-07-09T04:04:33;17.20;99.90
18934;DHT22;9599;53.706;10.384;2023-07-09T04:07:01;17.20;99.90
18934;DHT22;9599;53.706;10.384;2023-07-09T04:09:29;17.30;99.90
18934;DHT22;9599;53.706;10.384;2023-07-09T04:11:56;17.40;99.90
18934;DHT22;9599;53.706;10.384;2023-07-09T04:14:26;17.40;99.90
18934;DHT22;9599;53.706;10.384;2023-07-09T04:16:54;17.50;99.90
18934;DHT22;9599;53.706;10.384;2023-07-09T04:19:21;17.60;99.90
18934;DHT22;9599;53.706;10.384;2023-07-09T04:21:49;17.50;99.90
18934;DHT22;9599;53.706;10.384;2023-07-09T04:24:18;17.50;99.90
18934;DHT22;9599;53.706;10.384;2023-07-09T04:26:47;17.50;99.90
18934;DHT22;9599;53.706;10.384;2023-07-09T04:29:15;17.60;99.90
18934;DHT22;9599;53.706;10.384;2023-07-09T04:31:46;17.50;99.90
18934;DHT22;9599;53.706;10.384;2023-07-09T04:34:13;17.60;99.90
18934;DHT22;9599;53.706;10.384;2023-07-09T04:36:41;17.60;99.90
18934;DHT22;9599;53.706;10.384;2023-07-09T04:39:09;17.70;99.90
18934;DHT22;9599;53.706;10.384;2023-07-09T04:41:37;17.70;99.90
18934;DHT22;9599;53.706;10.384;2023-07-09T04:44:05;17.70;99.90
18934;DHT22;9599;53.706;10.384;2023-07-09T04:46:33;17.80;99.90
18934;DHT22;9599;53.706;10.384;2023-07-09T04:49:03;17.80;99.90
18934;DHT22;9599;53.706;10.384;2023-07-09T04:51:31;17.80;99.90
18934;DHT22;9599;53.706;10.384;2023-07-09T04:53:59;17.90;99.90
18934;DHT22;9599;53.706;10.384;2023-07-09T04:56:30;17.90;99.90
18934;DHT22;9599;53.706;10.384;2023-07-09T04:58:58;18.00;99.90
18934;DHT22;9599;53.706;10.384;2023-07-09T05:01:26;18.10;99.90
18934;DHT22;9599;53.706;10.384;2023-07-09T05:03:54;18.10;99.90
18934;DHT22;9599;53.706;10.384;2023-07-09T05:06:24;18.20;99.90
18934;DHT22;9599;53.706;10.384;2023-07-09T05:08:51;18.30;99.90
18934;DHT22;9599;53.706;10.384;2023-07-09T05:11:19;18.40;99.90
18934;DHT22;9599;53.706;10.384;2023-07-09T05:13:47;18.60;99.90
18934;DHT22;9599;53.706;10.384;2023-07-09T05:16:18;18.90;99.90
18934;DHT22;9599;53.706;10.384;2023-07-09T05:18:46;19.00;99.90
18934;DHT22;9599;53.706;10.384;2023-07-09T05:21:14;19.10;99.90
18934;DHT22;9599;53.706;10.384;2023-07-09T05:23:44;19.20;99.90
18934;DHT22;9599;53.706;10.384;2023-07-09T05:26:12;19.40;99.90
18934;DHT22;9599;53.706;10.384;2023-07-09T05:28:39;19.60;99.90
18934;DHT22;9599;53.706;10.384;2023-07-09T05:31:07;19.90;99.90
18934;DHT22;9599;53.706;10.384;2023-07-09T05:33:36;20.20;99.90
18934;DHT22;9599;53.706;10.384;2023-07-09T05:36:04;20.40;99.90
18934;DHT22;9599;53.706;10.384;2023-07-09T05:38:33;20.60;99.90
18934;DHT22;9599;53.706;10.384;2023-07-09T05:41:04;20.90;99.90
18934;DHT22;9599;53.706;10.384;2023-07-09T05:43:31;21.10;99.90
18934;DHT22;9599;53.706;10.384;2023-07-09T05:46:01;21.30;99.90
18934;DHT22;9599;53.706;10.384;2023-07-09T05:48:30;21.40;99.90
18934;DHT22;9599;53.706;10.384;2023-07-09T05:50:57;21.60;99.90
18934;DHT22;9599;53.706;10.384;2023-07-09T05:53:25;21.80;99.90
18934;DHT22;9599;53.706;10.384;2023-07-09T05:55:53;21.90;99.90
18934;DHT22;9599;53.706;10.384;2023-07-09T05:58:23;22.20;99.90
18934;DHT22;9599;53.706;10.384;2023-07-09T06:00:51;22.40;99.90
18934;DHT22;9599;53.706;10.384;2023-07-09T06:03:21;22.70;99.90
18934;DHT22;9599;53.706;10.384;2023-07-09T06:05:50;23.00;99.90
18934;DHT22;9599;53.706;10.384;2023-07-09T06:08:18;23.30;99.90
18934;DHT22;9599;53.706;10.384;2023-07-09T06:10:56;23.40;99.90
18934;DHT22;9599;53.706;10.384;2023-07-09T06:13:28;23.70;99.90
18934;DHT22;9599;53.706;10.384;2023-07-09T06:15:58;24.00;99.90
18934;DHT22;9599;53.706;10.384;2023-07-09T06:18:28;24.30;99.90
18934;DHT22;9599;53.706;10.384;2023-07-09T06:20:59;24.40;99.90
18934;DHT22;9599;53.706;10.384;2023-07-09T06:23:28;24.60;99.90
18934;DHT22;9599;53.706;10.384;2023-07-09T06:25:57;24.90;99.90
18934;DHT22;9599;53.706;10.384;2023-07-09T06:28:28;25.00;99.90
18934;DHT22;9599;53.706;10.384;2023-07-09T06:30:56;25.00;99.90
18934;DHT22;9599;53.706;10.384;2023-07-09T06:33:25;25.10;99.90
18934;DHT22;9599;53.706;10.384;2023-07-09T06:35:55;25.20;99.90
18934;DHT22;9599;53.706;10.384;2023-07-09T06:38:24;25.50;99.90
18934;DHT22;9599;53.706;10.384;2023-07-09T06:40:52;25.50;99.90
18934;DHT22;9599;53.706;10.384;2023-07-09T06:43:20;25.50;99.90
18934;DHT22;9599;53.706;10.384;2023-07-09T06:45:51;25.40;99.90
18934;DHT22;9599;53.706;10.384;2023-07-09T06:48:19;25.40;99.90
18934;DHT22;9599;53.706;10.384;2023-07-09T06:50:47;25.50;99.90
18934;DHT22;9599;53.706;10.384;2023-07-09T06:53:16;25.50;99.90
18934;DHT22;9599;53.706;10.384;2023-07-09T06:55:44;25.70;99.90
18934;DHT22;9599;53.706;10.384;2023-07-09T06:58:13;25.90;99.90
18934;DHT22;9599;53.706;10.384;2023-07-09T07:00:40;25.90;99.90
18934;DHT22;9599;53.706;10.384;2023-07-09T07:03:10;26.10;99.90
18934;DHT22;9599;53.706;10.384;2023-07-09T07:05:43;26.20;99.90
18934;DHT22;9599;53.706;10.384;2023-07-09T07:08:13;26.60;99.90
18934;DHT22;9599;53.706;10.384;2023-07-09T07:10:42;27.00;99.90
18934;DHT22;9599;53.706;10.384;2023-07-09T07:13:10;27.20;99.90
18934;DHT22;9599;53.706;10.384;2023-07-09T07:15:40;27.40;99.90
18934;DHT22;9599;53.706;10.384;2023-07-09T07:18:10;27.50;99.90
18934;DHT22;9599;53.706;10.384;2023-07-09T07:20:38;27.50;99.90
18934;DHT22;9599;53.706;10.384;2023-07-09T07:23:06;27.30;99.90
18934;DHT22;9599;53.706;10.384;2023-07-09T07:25:34;27.30;99.90
18934;DHT22;9599;53.706;10.384;2023-07-09T07:28:03;27.50;99.90
18934;DHT22;9599;53.706;10.384;2023-07-09T07:30:31;27.60;99.90
18934;DHT22;9599;53.706;10.384;2023-07-09T07:32:59;27.60;99.90
18934;DHT22;9599;53.706;10.384;2023-07-09T07:35:28;27.50;99.90
18934;DHT22;9599;53.706;10.384;2023-07-09T07:37:56;27.70;99.90
18934;DHT22;9599;53.706;10.384;2023-07-09T07:40:24;27.90;99.90
18934;DHT22;9599;53.706;10.384;2023-07-09T07:42:52;28.10;99.90
18934;DHT22;9599;53.706;10.384;2023-07-09T07:45:20;28.50;99.90
18934;DHT22;9599;53.706;10.384;2023-07-09T07:47:48;28.80;99.90
18934;DHT22;9599;53.706;10.384;2023-07-09T07:50:18;28.80;99.90
18934;DHT22;9599;53.706;10.384;2023-07-09T07:52:49;28.90;99.90
18934;DHT22;9599;53.706;10.384;2023-07-09T07:55:17;28.90;99.90
18934;DHT22;9599;53.706;10.384;2023-07-09T07:57:49;29.00;99.90
18934;DHT22;9599;53.706;10.384;2023-07-09T08:00:17;28.90;99.90
18934;DHT22;9599;53.706;10.384;2023-07-09T08:02:46;29.10;99.90
18934;DHT22;9599;53.706;10.384;2023-07-09T08:05:14;29.40;99.90
18934;DHT22;9599;53.706;10.384;2023-07-09T08:07:42;29.60;99.90
18934;DHT22;9599;53.706;10.384;2023-07-09T08:10:12;29.80;99.90
18934;DHT22;9599;53.706;10.384;2023-07-09T08:12:41;30.10;99.90
18934;DHT22;9599;53.706;10.384;2023-07-09T08:15:10;30.10;99.90
18934;DHT22;9599;53.706;10.384;2023-07-09T08:17:38;30.20;99.90
18934;DHT22;9599;53.706;10.384;2023-07-09T08:20:07;30.10;99.90
18934;DHT22;9599;53.706;10.384;2023-07-09T08:22:36;30.10;99.90
18934;DHT22;9599;53.706;10.384;2023-07-09T08:25:07;30.20;99.90
18934;DHT22;9599;53.706;10.384;2023-07-09T08:27:36;30.30;99.90
18934;DHT22;9599;53.706;10.384;2023-07-09T08:30:05;30.50;99.90
18934;DHT22;9599;53.706;10.384;2023-07-09T08:32:33;30.70;99.90
18934;DHT22;9599;53.706;10.384;2023-07-09T08:35:03;30.80;99.90
18934;DHT22;9599;53.706;10.384;2023-07-09T08:37:51;30.90;99.90
18934;DHT22;9599;53.706;10.384;2023-07-09T08:40:19;30.90;99.90
18934;DHT22;9599;53.706;10.384;2023-07-09T08:42:52;30.90;99.90
18934;DHT22;9599;53.706;10.384;2023-07-09T08:45:35;30.90;99.90
18934;DHT22;9599;53.706;10.384;2023-07-09T08:48:10;30.90;99.90
18934;DHT22;9599;53.706;10.384;2023-07-09T08:50:43;31.00;99.90
18934;DHT22;9599;53.706;10.384;2023-07-09T08:53:18;31.20;99.90
18934;DHT22;9599;53.706;10.384;2023-07-09T08:55:49;31.20;99.90
18934;DHT22;9599;53.706;10.384;2023-07-09T08:58:23;31.00;99.90
18934;DHT22;9599;53.706;10.384;2023-07-09T09:00:54;31.00;99.90
18934;DHT22;9599;53.706;10.384;2023-07-09T09:03:29;31.20;99.90
18934;DHT22;9599;53.706;10.384;2023-07-09T09:05:58;31.40;99.90
18934;DHT22;9599;53.706;10.384;2023-07-09T09:08:38;31.50;99.90
18934;DHT22;9599;53.706;10.384;2023-07-09T09:11:15;31.50;99.90
18934;DHT22;9599;53.706;10.384;2023-07-09T09:13:53;31.40;99.90
18934;DHT22;9599;53.706;10.384;2023-07-09T09:16:25;31.40;99.90
18934;DHT22;9599;53.706;10.384;2023-07-09T09:18:58;31.20;99.90
18934;DHT22;9599;53.706;10.384;2023-07-09T09:21:31;31.20;99.90
18934;DHT22;9599;53.706;10.384;2023-07-09T09:24:12;31.20;99.90
18934;DHT22;9599;53.706;10.384;2023-07-09T09:26:42;31.10;99.90
18934;DHT22;9599;53.706;10.384;2023-07-09T09:29:14;31.20;99.90
18934;DHT22;9599;53.706;10.384;2023-07-09T09:31:46;31.20;99.90
18934;DHT22;9599;53.706;10.384;2023-07-09T09:34:20;31.50;99.90
18934;DHT22;9599;53.706;10.384;2023-07-09T09:36:49;31.60;99.90
18934;DHT22;9599;53.706;10.384;2023-07-09T09:39:17;31.90;99.90
18934;DHT22;9599;53.706;10.384;2023-07-09T09:41:46;31.80;99.90
18934;DHT22;9599;53.706;10.384;2023-07-09T09:44:20;31.80;99.90
18934;DHT22;9599;53.706;10.384;2023-07-09T09:46:49;31.70;99.90
18934;DHT22;9599;53.706;10.384;2023-07-09T09:49:17;31.60;99.90
18934;DHT22;9599;53.706;10.384;2023-07-09T09:51:47;31.70;99.70
18934;DHT22;9599;53.706;10.384;2023-07-09T09:54:18;31.80;99.90
18934;DHT22;9599;53.706;10.384;2023-07-09T09:56:49;31.80;98.90
18934;DHT22;9599;53.706;10.384;2023-07-09T09:59:21;32.10;99.70
18934;DHT22;9599;53.706;10.384;2023-07-09T10:02:00;32.10;99.20
18934;DHT22;9599;53.706;10.384;2023-07-09T10:04:29;32.00;99.90
18934;DHT22;9599;53.706;10.384;2023-07-09T10:07:01;32.00;99.90
18934;DHT22;9599;53.706;10.384;2023-07-09T10:09:41;32.00;98.00
18934;DHT22;9599;53.706;10.384;2023-07-09T10:12:21;31.80;99.90
18934;DHT22;9599;53.706;10.384;2023-07-09T10:14:59;31.80;99.90
18934;DHT22;9599;53.706;10.384;2023-07-09T10:17:35;32.30;99.90
18934;DHT22;9599;53.706;10.384;2023-07-09T10:20:08;32.70;99.50
18934;DHT22;9599;53.706;10.384;2023-07-09T10:22:48;32.70;97.50
18934;DHT22;9599;53.706;10.384;2023-07-09T10:25:31;32.70;97.90
18934;DHT22;9599;53.706;10.384;2023-07-09T10:28:33;32.70;97.70
18934;DHT22;9599;53.706;10.384;2023-07-09T10:31:11;32.70;98.20
18934;DHT22;9599;53.706;10.384;2023-07-09T10:33:53;32.80;98.00
18934;DHT22;9599;53.706;10.384;2023-07-09T10:36:37;32.80;98.90
18934;DHT22;9599;53.706;10.384;2023-07-09T10:39:13;32.80;98.60
18934;DHT22;9599;53.706;10.384;2023-07-09T10:41:43;33.00;98.40
18934;DHT22;9599;53.706;10.384;2023-07-09T10:44:16;33.00;98.50
18934;DHT22;9599;53.706;10.384;2023-07-09T10:46:50;33.20;98.10
18934;DHT22;9599;53.706;10.384;2023-07-09T10:49:22;33.30;98.20
18934;DHT22;9599;53.706;10.384;2023-07-09T10:51:55;33.60;97.70
18934;DHT22;9599;53.706;10.384;2023-07-09T10:54:32;33.30;98.40
18934;DHT22;9599;53.706;10.384;2023-07-09T10:57:03;33.40;96.90
18934;DHT22;9599;53.706;10.384;2023-07-09T10:59:36;33.50;97.00
18934;DHT22;9599;53.706;10.384;2023-07-09T11:02:16;33.60;97.10
18934;DHT22;9599;53.706;10.384;2023-07-09T11:04:49;33.60;97.80
18934;DHT22;9599;53.706;10.384;2023-07-09T11:07:25;33.50;97.00
18934;DHT22;9599;53.706;10.384;2023-07-09T11:09:55;33.40;98.00
18934;DHT22;9599;53.706;10.384;2023-07-09T11:12:30;33.40;98.00
18934;DHT22;9599;53.706;10.384;2023-07-09T11:15:03;33.60;95.20
18934;DHT22;9599;53.706;10.384;2023-07-09T11:17:33;33.70;96.80
18934;DHT22;9599;53.706;10.384;2023-07-09T11:20:16;33.60;94.70
18934;DHT22;9599;53.706;10.384;2023-07-09T11:22:52;33.70;97.20
18934;DHT22;9599;53.706;10.384;2023-07-09T11:25:39;33.70;96.80
18934;DHT22;9599;53.706;10.384;2023-07-09T11:28:09;33.60;96.30
18934;DHT22;9599;53.706;10.384;2023-07-09T11:30:55;33.50;97.20
18934;DHT22;9599;53.706;10.384;2023-07-09T11:33:43;33.60;95.40
18934;DHT22;9599;53.706;10.384;2023-07-09T11:36:14;33.80;96.10
18934;DHT22;9599;53.706;10.384;2023-07-09T11:38:52;33.90;96.80
18934;DHT22;9599;53.706;10.384;2023-07-09T11:41:27;34.00;95.10
18934;DHT22;9599;53.706;10.384;2023-07-09T11:44:03;34.30;95.10
18934;DHT22;9599;53.706;10.384;2023-07-09T11:46:32;34.00;94.90
18934;DHT22;9599;53.706;10.384;2023-07-09T11:49:04;33.80;95.80
18934;DHT22;9599;53.706;10.384;2023-07-09T11:51:37;33.90;95.40
18934;DHT22;9599;53.706;10.384;2023-07-09T11:54:11;34.00;96.80
18934;DHT22;9599;53.706;10.384;2023-07-09T11:56:39;34.00;96.30
18934;DHT22;9599;53.706;10.384;2023-07-09T11:59:10;34.00;95.60
18934;DHT22;9599;53.706;10.384;2023-07-09T12:01:43;34.10;94.70
18934;DHT22;9599;53.706;10.384;2023-07-09T12:04:14;34.10;94.60
18934;DHT22;9599;53.706;10.384;2023-07-09T12:06:44;34.00;94.80
18934;DHT22;9599;53.706;10.384;2023-07-09T12:09:14;34.00;95.70
18934;DHT22;9599;53.706;10.384;2023-07-09T12:11:44;34.00;94.70
18934;DHT22;9599;53.706;10.384;2023-07-09T12:14:14;34.10;94.60
18934;DHT22;9599;53.706;10.384;2023-07-09T12:16:44;34.20;94.30
18934;DHT22;9599;53.706;10.384;2023-07-09T12:19:19;34.10;94.40
18934;DHT22;9599;53.706;10.384;2023-07-09T12:21:51;34.10;94.60
18934;DHT22;9599;53.706;10.384;2023-07-09T12:24:22;34.10;94.10
18934;DHT22;9599;53.706;10.384;2023-07-09T12:26:52;34.10;93.50
18934;DHT22;9599;53.706;10.384;2023-07-09T12:29:24;34.10;93.90
18934;DHT22;9599;53.706;10.384;2023-07-09T12:31:52;34.00;93.60
18934;DHT22;9599;53.706;10.384;2023-07-09T12:34:21;34.00;93.90
18934;DHT22;9599;53.706;10.384;2023-07-09T12:36:51;34.00;93.40
18934;DHT22;9599;53.706;10.384;2023-07-09T12:39:23;34.10;94.10
18934;DHT22;9599;53.706;10.384;2023-07-09T12:41:54;34.20;93.00
18934;DHT22;9599;53.706;10.384;2023-07-09T12:44:23;34.10;94.30
18934;DHT22;9599;53.706;10.384;2023-07-09T12:46:53;34.10;94.00
18934;DHT22;9599;53.706;10.384;2023-07-09T12:49:25;34.20;94.20
18934;DHT22;9599;53.706;10.384;2023-07-09T12:51:54;34.20;92.90
18934;DHT22;9599;53.706;10.384;2023-07-09T12:54:22;34.10;92.80
18934;DHT22;9599;53.706;10.384;2023-07-09T12:56:51;34.10;94.80
18934;DHT22;9599;53.706;10.384;2023-07-09T12:59:22;33.90;94.20
18934;DHT22;9599;53.706;10.384;2023-07-09T13:01:54;33.90;93.30
18934;DHT22;9599;53.706;10.384;2023-07-09T13:04:30;33.90;94.10
18934;DHT22;9599;53.706;10.384;2023-07-09T13:06:58;33.80;92.90
18934;DHT22;9599;53.706;10.384;2023-07-09T13:09:27;33.70;93.30
18934;DHT22;9599;53.706;10.384;2023-07-09T13:11:56;33.60;91.90
18934;DHT22;9599;53.706;10.384;2023-07-09T13:14:26;33.60;92.10
18934;DHT22;9599;53.706;10.384;2023-07-09T13:17:02;33.60;92.40
18934;DHT22;9599;53.706;10.384;2023-07-09T13:19:32;33.70;92.10
18934;DHT22;9599;53.706;10.384;2023-07-09T13:22:00;33.80;93.40
18934;DHT22;9599;53.706;10.384;2023-07-09T13:24:29;33.80;93.00
18934;DHT22;9599;53.706;10.384;2023-07-09T13:26:57;33.60;92.40
18934;DHT22;9599;53.706;10.384;2023-07-09T13:29:27;33.60;93.60
18934;DHT22;9599;53.706;10.384;2023-07-09T13:31:55;33.60;93.30
18934;DHT22;9599;53.706;10.384;2023-07-09T13:34:26;33.60;93.60
18934;DHT22;9599;53.706;10.384;2023-07-09T13:36:55;33.60;92.00
18934;DHT22;9599;53.706;10.384;2023-07-09T13:39:23;33.60;92.80
18934;DHT22;9599;53.706;10.384;2023-07-09T13:41:55;33.40;91.50
18934;DHT22;9599;53.706;10.384;2023-07-09T13:44:24;33.30;91.30
18934;DHT22;9599;53.706;10.384;2023-07-09T13:46:53;33.30;93.40
18934;DHT22;9599;53.706;10.384;2023-07-09T13:49:24;33.50;93.50
18934;DHT22;9599;53.706;10.384;2023-07-09T13:51:53;33.60;92.90
18934;DHT22;9599;53.706;10.384;2023-07-09T13:54:26;33.80;93.90
18934;DHT22;9599;53.706;10.384;2023-07-09T13:56:58;33.80;92.20
18934;DHT22;9599;53.706;10.384;2023-07-09T13:59:28;33.90;90.70
18934;DHT22;9599;53.706;10.384;2023-07-09T14:01:57;33.80;91.70
18934;DHT22;9599;53.706;10.384;2023-07-09T14:04:26;33.70;91.50
18934;DHT22;9599;53.706;10.384;2023-07-09T14:06:55;33.70;91.20
18934;DHT22;9599;53.706;10.384;2023-07-09T14:09:24;33.60;90.60
18934;DHT22;9599;53.706;10.384;2023-07-09T14:11:53;33.60;90.90
18934;DHT22;9599;53.706;10.384;2023-07-09T14:14:23;33.60;89.90
18934;DHT22;9599;53.706;10.384;2023-07-09T14:16:52;33.60;91.40
18934;DHT22;9599;53.706;10.384;2023-07-09T14:19:22;33.70;91.20
18934;DHT22;9599;53.706;10.384;2023-07-09T14:21:51;33.70;90.60
18934;DHT22;9599;53.706;10.384;2023-07-09T14:24:23;33.70;90.70
18934;DHT22;9599;53.706;10.384;2023-07-09T14:26:53;33.80;90.40
18934;DHT22;9599;53.706;10.384;2023-07-09T14:29:22;33.80;91.20
18934;DHT22;9599;53.706;10.384;2023-07-09T14:31:50;33.80;90.80
18934;DHT22;9599;53.706;10.384;2023-07-09T14:34:21;33.70;90.70
18934;DHT22;9599;53.706;10.384;2023-07-09T14:36:51;33.80;90.90
18934;DHT22;9599;53.706;10.384;2023-07-09T14:39:19;33.70;90.00
18934;DHT22;9599;53.706;10.384;2023-07-09T14:41:48;33.80;90.50
18934;DHT22;9599;53.706;10.384;2023-07-09T14:44:22;33.70;90.10
18934;DHT22;9599;53.706;10.384;2023-07-09T14:46:52;33.70;89.00
18934;DHT22;9599;53.706;10.384;2023-07-09T14:49:21;33.60;90.20
18934;DHT22;9599;53.706;10.384;2023-07-09T14:51:50;33.60;90.20
18934;DHT22;9599;53.706;10.384;2023-07-09T14:54:20;33.60;91.20
18934;DHT22;9599;53.706;10.384;2023-07-09T14:56:53;33.60;90.00
18934;DHT22;9599;53.706;10.384;2023-07-09T14:59:22;33.70;90.70
18934;DHT22;9599;53.706;10.384;2023-07-09T15:01:51;33.60;90.50
18934;DHT22;9599;53.706;10.384;2023-07-09T15:04:28;33.40;90.20
18934;DHT22;9599;53.706;10.384;2023-07-09T15:06:57;33.30;91.30
18934;DHT22;9599;53.706;10.384;2023-07-09T15:09:27;33.30;90.70
18934;DHT22;9599;53.706;10.384;2023-07-09T15:11:56;33.30;90.70
18934;DHT22;9599;53.706;10.384;2023-07-09T15:14:26;33.30;91.30
18934;DHT22;9599;53.706;10.384;2023-07-09T15:16:55;33.20;91.00
18934;DHT22;9599;53.706;10.384;2023-07-09T15:19:27;33.30;92.10
18934;DHT22;9599;53.706;10.384;2023-07-09T15:21:55;33.20;90.70
18934;DHT22;9599;53.706;10.384;2023-07-09T15:24:26;33.30;91.10
18934;DHT22;9599;53.706;10.384;2023-07-09T15:26:56;33.30;90.70
18934;DHT22;9599;53.706;10.384;2023-07-09T15:29:27;33.30;91.20
18934;DHT22;9599;53.706;10.384;2023-07-09T15:31:56;33.40;91.30
18934;DHT22;9599;53.706;10.384;2023-07-09T15:34:24;33.50;90.80
18934;DHT22;9599;53.706;10.384;2023-07-09T15:36:52;33.50;91.00
18934;DHT22;9599;53.706;10.384;2023-07-09T15:39:21;33.50;90.50
18934;DHT22;9599;53.706;10.384;2023-07-09T15:41:49;33.50;91.00
18934;DHT22;9599;53.706;10.384;2023-07-09T15:44:17;33.30;90.20
18934;DHT22;9599;53.706;10.384;2023-07-09T15:46:54;33.30;90.50
18934;DHT22;9599;53.706;10.384;2023-07-09T15:49:23;33.20;87.40
18934;DHT22;9599;53.706;10.384;2023-07-09T15:51:51;33.00;89.70